sensor_id;sensor_type;location;lat;lon;timestamp;P1;durP1;ratioP1;P2;durP2;ratioP2
65469;SDS011;52067;50.710;14.492;2023-03-20T00:00:05;106.53;;;47.50;;
65469;SDS011;52067;50.710;14.492;2023-03-20T00:02:34;93.68;;;43.17;;
65469;SDS011;52067;50.710;14.492;2023-03-20T00:05:00;97.53;;;43.92;;
65469;SDS011;52067;50.710;14.492;2023-03-20T00:07:25;90.30;;;42.80;;
65469;SDS011;52067;50.710;14.492;2023-03-20T00:09:51;97.65;;;43.22;;
65469;SDS011;52067;50.710;14.492;2023-03-20T00:12:19;89.38;;;42.28;;
65469;SDS011;52067;50.710;14.492;2023-03-20T00:14:48;102.32;;;42.90;;
65469;SDS011;52067;50.710;14.492;2023-03-20T00:17:16;96.22;;;44.20;;
65469;SDS011;52067;50.710;14.492;2023-03-20T00:19:44;102.57;;;43.60;;
65469;SDS011;52067;50.710;14.492;2023-03-20T00:22:10;83.72;;;42.47;;
65469;SDS011;52067;50.710;14.492;2023-03-20T00:24:36;73.35;;;38.50;;
65469;SDS011;52067;50.710;14.492;2023-03-20T00:27:02;70.43;;;38.50;;
65469;SDS011;52067;50.710;14.492;2023-03-20T00:29:30;78.90;;;40.25;;
65469;SDS011;52067;50.710;14.492;2023-03-20T00:31:57;75.30;;;38.30;;
65469;SDS011;52067;50.710;14.492;2023-03-20T00:34:24;88.05;;;40.80;;
65469;SDS011;52067;50.710;14.492;2023-03-20T00:36:51;92.38;;;44.15;;
65469;SDS011;52067;50.710;14.492;2023-03-20T00:39:17;88.53;;;41.63;;
65469;SDS011;52067;50.710;14.492;2023-03-20T00:41:53;85.60;;;41.40;;
65469;SDS011;52067;50.710;14.492;2023-03-20T00:46:58;84.07;;;40.40;;
65469;SDS011;52067;50.710;14.492;2023-03-20T00:49:31;78.95;;;38.80;;
65469;SDS011;52067;50.710;14.492;2023-03-20T00:51:58;79.13;;;40.35;;
65469;SDS011;52067;50.710;14.492;2023-03-20T00:54:25;81.68;;;40.33;;
65469;SDS011;52067;50.710;14.492;2023-03-20T00:59:22;89.20;;;43.13;;
65469;SDS011;52067;50.710;14.492;2023-03-20T01:01:51;93.97;;;43.95;;
65469;SDS011;52067;50.710;14.492;2023-03-20T01:04:17;98.10;;;42.08;;
65469;SDS011;52067;50.710;14.492;2023-03-20T01:06:44;81.93;;;41.80;;
65469;SDS011;52067;50.710;14.492;2023-03-20T01:09:12;77.80;;;41.40;;
65469;SDS011;52067;50.710;14.492;2023-03-20T01:11:37;82.03;;;41.13;;
65469;SDS011;52067;50.710;14.492;2023-03-20T01:14:04;85.47;;;40.92;;
65469;SDS011;52067;50.710;14.492;2023-03-20T01:16:34;86.63;;;41.55;;
65469;SDS011;52067;50.710;14.492;2023-03-20T01:18:59;75.95;;;39.00;;
65469;SDS011;52067;50.710;14.492;2023-03-20T01:21:25;92.15;;;42.28;;
65469;SDS011;52067;50.710;14.492;2023-03-20T01:23:50;80.15;;;37.83;;
65469;SDS011;52067;50.710;14.492;2023-03-20T01:26:30;102.30;;;44.67;;
65469;SDS011;52067;50.710;14.492;2023-03-20T01:28:58;102.93;;;45.78;;
65469;SDS011;52067;50.710;14.492;2023-03-20T01:31:24;102.45;;;44.75;;
65469;SDS011;52067;50.710;14.492;2023-03-20T01:33:50;108.32;;;43.65;;
65469;SDS011;52067;50.710;14.492;2023-03-20T01:36:16;86.85;;;42.25;;
65469;SDS011;52067;50.710;14.492;2023-03-20T01:38:46;102.63;;;46.20;;
65469;SDS011;52067;50.710;14.492;2023-03-20T01:41:22;190.02;;;59.28;;
65469;SDS011;52067;50.710;14.492;2023-03-20T01:43:49;98.13;;;43.55;;
65469;SDS011;52067;50.710;14.492;2023-03-20T01:46:16;89.88;;;42.45;;
65469;SDS011;52067;50.710;14.492;2023-03-20T01:51:16;78.47;;;37.28;;
65469;SDS011;52067;50.710;14.492;2023-03-20T01:53:42;97.85;;;43.40;;
65469;SDS011;52067;50.710;14.492;2023-03-20T01:56:11;116.72;;;46.70;;
65469;SDS011;52067;50.710;14.492;2023-03-20T01:58:41;72.90;;;38.97;;
65469;SDS011;52067;50.710;14.492;2023-03-20T02:01:10;75.82;;;37.65;;
65469;SDS011;52067;50.710;14.492;2023-03-20T02:03:38;85.40;;;38.65;;
65469;SDS011;52067;50.710;14.492;2023-03-20T02:06:05;81.55;;;37.90;;
65469;SDS011;52067;50.710;14.492;2023-03-20T02:08:32;70.88;;;35.13;;
65469;SDS011;52067;50.710;14.492;2023-03-20T02:11:05;105.78;;;42.83;;
65469;SDS011;52067;50.710;14.492;2023-03-20T02:13:30;318.02;;;46.08;;
65469;SDS011;52067;50.710;14.492;2023-03-20T02:15:58;152.15;;;39.67;;
65469;SDS011;52067;50.710;14.492;2023-03-20T02:18:36;178.10;;;44.63;;
65469;SDS011;52067;50.710;14.492;2023-03-20T02:37:59;113.57;;;38.78;;
65469;SDS011;52067;50.710;14.492;2023-03-20T02:40:43;102.78;;;41.70;;
65469;SDS011;52067;50.710;14.492;2023-03-20T02:43:21;116.25;;;41.88;;
65469;SDS011;52067;50.710;14.492;2023-03-20T02:48:55;117.63;;;44.05;;
65469;SDS011;52067;50.710;14.492;2023-03-20T02:55:25;177.45;;;40.13;;
65469;SDS011;52067;50.710;14.492;2023-03-20T03:02:47;116.57;;;39.53;;
65469;SDS011;52067;50.710;14.492;2023-03-20T03:05:24;194.63;;;39.88;;
65469;SDS011;52067;50.710;14.492;2023-03-20T03:07:58;160.32;;;39.50;;
65469;SDS011;52067;50.710;14.492;2023-03-20T03:10:27;93.15;;;37.45;;
65469;SDS011;52067;50.710;14.492;2023-03-20T03:12:56;127.28;;;42.35;;
65469;SDS011;52067;50.710;14.492;2023-03-20T03:15:33;136.73;;;43.13;;
65469;SDS011;52067;50.710;14.492;2023-03-20T03:18:04;115.32;;;41.65;;
65469;SDS011;52067;50.710;14.492;2023-03-20T03:20:37;150.00;;;43.33;;
65469;SDS011;52067;50.710;14.492;2023-03-20T03:23:04;137.18;;;41.92;;
65469;SDS011;52067;50.710;14.492;2023-03-20T03:25:34;106.75;;;40.28;;
65469;SDS011;52067;50.710;14.492;2023-03-20T03:28:04;134.60;;;37.50;;
65469;SDS011;52067;50.710;14.492;2023-03-20T03:30:34;154.35;;;38.75;;
65469;SDS011;52067;50.710;14.492;2023-03-20T03:33:18;92.75;;;39.63;;
65469;SDS011;52067;50.710;14.492;2023-03-20T03:35:47;76.80;;;36.60;;
65469;SDS011;52067;50.710;14.492;2023-03-20T03:43:37;66.88;;;33.35;;
65469;SDS011;52067;50.710;14.492;2023-03-20T03:46:25;74.30;;;34.03;;
65469;SDS011;52067;50.710;14.492;2023-03-20T03:48:59;88.53;;;38.75;;
65469;SDS011;52067;50.710;14.492;2023-03-20T03:51:28;91.90;;;39.35;;
65469;SDS011;52067;50.710;14.492;2023-03-20T03:54:17;100.38;;;40.33;;
65469;SDS011;52067;50.710;14.492;2023-03-20T03:56:55;83.28;;;37.30;;
65469;SDS011;52067;50.710;14.492;2023-03-20T03:59:37;96.82;;;42.05;;
65469;SDS011;52067;50.710;14.492;2023-03-20T04:02:07;74.45;;;37.20;;
65469;SDS011;52067;50.710;14.492;2023-03-20T04:04:35;83.00;;;38.33;;
65469;SDS011;52067;50.710;14.492;2023-03-20T04:07:05;95.45;;;41.22;;
65469;SDS011;52067;50.710;14.492;2023-03-20T04:09:31;87.88;;;41.08;;
65469;SDS011;52067;50.710;14.492;2023-03-20T04:11:57;82.25;;;40.17;;
65469;SDS011;52067;50.710;14.492;2023-03-20T04:14:23;111.32;;;39.15;;
65469;SDS011;52067;50.710;14.492;2023-03-20T04:16:48;78.65;;;39.35;;
65469;SDS011;52067;50.710;14.492;2023-03-20T04:19:14;77.78;;;38.80;;
65469;SDS011;52067;50.710;14.492;2023-03-20T04:21:39;84.35;;;38.60;;
65469;SDS011;52067;50.710;14.492;2023-03-20T04:24:05;76.53;;;35.90;;
65469;SDS011;52067;50.710;14.492;2023-03-20T04:26:31;77.72;;;37.70;;
65469;SDS011;52067;50.710;14.492;2023-03-20T04:28:56;81.35;;;38.65;;
65469;SDS011;52067;50.710;14.492;2023-03-20T04:31:22;86.82;;;39.97;;
65469;SDS011;52067;50.710;14.492;2023-03-20T04:33:48;95.60;;;43.22;;
65469;SDS011;52067;50.710;14.492;2023-03-20T04:36:13;134.93;;;51.17;;
65469;SDS011;52067;50.710;14.492;2023-03-20T04:38:38;453.52;;;150.40;;
65469;SDS011;52067;50.710;14.492;2023-03-20T04:41:05;430.20;;;142.82;;
65469;SDS011;52067;50.710;14.492;2023-03-20T04:43:30;451.48;;;151.18;;
65469;SDS011;52067;50.710;14.492;2023-03-20T04:45:56;349.65;;;109.30;;
65469;SDS011;52067;50.710;14.492;2023-03-20T04:48:22;213.65;;;76.97;;
65469;SDS011;52067;50.710;14.492;2023-03-20T04:50:47;229.55;;;78.78;;
65469;SDS011;52067;50.710;14.492;2023-03-20T04:53:15;191.40;;;68.25;;
65469;SDS011;52067;50.710;14.492;2023-03-20T04:55:40;207.77;;;67.53;;
65469;SDS011;52067;50.710;14.492;2023-03-20T04:58:06;150.32;;;56.67;;
65469;SDS011;52067;50.710;14.492;2023-03-20T05:00:31;128.65;;;49.75;;
65469;SDS011;52067;50.710;14.492;2023-03-20T05:02:57;138.05;;;50.30;;
65469;SDS011;52067;50.710;14.492;2023-03-20T05:05:23;131.93;;;50.40;;
65469;SDS011;52067;50.710;14.492;2023-03-20T05:07:49;122.90;;;49.17;;
65469;SDS011;52067;50.710;14.492;2023-03-20T05:10:16;115.88;;;48.10;;
65469;SDS011;52067;50.710;14.492;2023-03-20T05:12:42;125.15;;;47.97;;
65469;SDS011;52067;50.710;14.492;2023-03-20T05:15:07;101.47;;;45.25;;
65469;SDS011;52067;50.710;14.492;2023-03-20T05:17:33;104.40;;;44.85;;
65469;SDS011;52067;50.710;14.492;2023-03-20T05:19:59;102.10;;;45.47;;
65469;SDS011;52067;50.710;14.492;2023-03-20T05:22:24;129.32;;;51.17;;
65469;SDS011;52067;50.710;14.492;2023-03-20T05:24:50;133.98;;;53.95;;
65469;SDS011;52067;50.710;14.492;2023-03-20T05:27:15;142.48;;;53.10;;
65469;SDS011;52067;50.710;14.492;2023-03-20T05:29:41;112.13;;;48.95;;
65469;SDS011;52067;50.710;14.492;2023-03-20T05:32:06;126.85;;;51.22;;
65469;SDS011;52067;50.710;14.492;2023-03-20T05:34:32;105.97;;;46.65;;
65469;SDS011;52067;50.710;14.492;2023-03-20T05:36:57;86.18;;;42.13;;
65469;SDS011;52067;50.710;14.492;2023-03-20T05:39:23;90.35;;;42.33;;
65469;SDS011;52067;50.710;14.492;2023-03-20T05:41:48;95.63;;;43.83;;
65469;SDS011;52067;50.710;14.492;2023-03-20T05:44:13;103.05;;;45.13;;
65469;SDS011;52067;50.710;14.492;2023-03-20T05:46:39;93.47;;;42.85;;
65469;SDS011;52067;50.710;14.492;2023-03-20T05:49:05;83.65;;;42.03;;
65469;SDS011;52067;50.710;14.492;2023-03-20T05:51:30;92.97;;;42.92;;
65469;SDS011;52067;50.710;14.492;2023-03-20T05:53:55;88.95;;;42.75;;
65469;SDS011;52067;50.710;14.492;2023-03-20T05:56:21;83.22;;;42.08;;
65469;SDS011;52067;50.710;14.492;2023-03-20T05:58:46;85.05;;;40.90;;
65469;SDS011;52067;50.710;14.492;2023-03-20T06:01:12;113.15;;;75.13;;
65469;SDS011;52067;50.710;14.492;2023-03-20T06:03:40;87.75;;;54.97;;
65469;SDS011;52067;50.710;14.492;2023-03-20T06:06:06;98.15;;;51.20;;
65469;SDS011;52067;50.710;14.492;2023-03-20T06:08:31;81.82;;;39.95;;
65469;SDS011;52067;50.710;14.492;2023-03-20T06:10:57;87.00;;;41.05;;
65469;SDS011;52067;50.710;14.492;2023-03-20T06:13:22;122.32;;;75.38;;
65469;SDS011;52067;50.710;14.492;2023-03-20T06:15:48;103.20;;;60.00;;
65469;SDS011;52067;50.710;14.492;2023-03-20T06:18:13;79.15;;;40.45;;
65469;SDS011;52067;50.710;14.492;2023-03-20T06:20:38;84.22;;;41.35;;
65469;SDS011;52067;50.710;14.492;2023-03-20T06:23:04;92.32;;;43.03;;
65469;SDS011;52067;50.710;14.492;2023-03-20T06:25:30;87.07;;;43.75;;
65469;SDS011;52067;50.710;14.492;2023-03-20T06:27:55;87.60;;;42.90;;
65469;SDS011;52067;50.710;14.492;2023-03-20T06:30:21;102.20;;;43.50;;
65469;SDS011;52067;50.710;14.492;2023-03-20T06:32:47;98.95;;;41.85;;
65469;SDS011;52067;50.710;14.492;2023-03-20T06:35:12;98.40;;;43.92;;
65469;SDS011;52067;50.710;14.492;2023-03-20T06:37:38;108.18;;;45.08;;
65469;SDS011;52067;50.710;14.492;2023-03-20T06:40:04;100.53;;;44.67;;
65469;SDS011;52067;50.710;14.492;2023-03-20T06:42:30;93.35;;;43.25;;
65469;SDS011;52067;50.710;14.492;2023-03-20T06:44:55;96.20;;;42.55;;
65469;SDS011;52067;50.710;14.492;2023-03-20T06:47:21;98.28;;;44.30;;
65469;SDS011;52067;50.710;14.492;2023-03-20T06:49:47;92.70;;;41.38;;
65469;SDS011;52067;50.710;14.492;2023-03-20T06:52:13;87.28;;;40.78;;
65469;SDS011;52067;50.710;14.492;2023-03-20T06:54:41;81.07;;;38.75;;
65469;SDS011;52067;50.710;14.492;2023-03-20T06:57:06;81.13;;;39.15;;
65469;SDS011;52067;50.710;14.492;2023-03-20T06:59:32;84.43;;;43.03;;
65469;SDS011;52067;50.710;14.492;2023-03-20T07:01:57;96.57;;;44.33;;
65469;SDS011;52067;50.710;14.492;2023-03-20T07:04:22;114.05;;;46.63;;
65469;SDS011;52067;50.710;14.492;2023-03-20T07:06:48;111.57;;;49.13;;
65469;SDS011;52067;50.710;14.492;2023-03-20T07:09:13;79.53;;;40.35;;
65469;SDS011;52067;50.710;14.492;2023-03-20T07:11:41;89.18;;;41.72;;
65469;SDS011;52067;50.710;14.492;2023-03-20T07:14:06;102.70;;;45.50;;
65469;SDS011;52067;50.710;14.492;2023-03-20T07:16:32;143.27;;;60.47;;
65469;SDS011;52067;50.710;14.492;2023-03-20T07:18:57;130.68;;;57.85;;
65469;SDS011;52067;50.710;14.492;2023-03-20T07:21:22;130.38;;;56.17;;
65469;SDS011;52067;50.710;14.492;2023-03-20T07:23:48;122.47;;;53.60;;
65469;SDS011;52067;50.710;14.492;2023-03-20T07:26:13;118.57;;;53.92;;
65469;SDS011;52067;50.710;14.492;2023-03-20T07:28:39;118.97;;;49.15;;
65469;SDS011;52067;50.710;14.492;2023-03-20T07:31:04;109.20;;;46.83;;
65469;SDS011;52067;50.710;14.492;2023-03-20T07:33:30;92.28;;;44.95;;
65469;SDS011;52067;50.710;14.492;2023-03-20T07:35:56;96.28;;;46.63;;
65469;SDS011;52067;50.710;14.492;2023-03-20T07:38:22;103.05;;;48.60;;
65469;SDS011;52067;50.710;14.492;2023-03-20T07:40:47;100.95;;;46.60;;
65469;SDS011;52067;50.710;14.492;2023-03-20T07:43:14;95.55;;;44.00;;
65469;SDS011;52067;50.710;14.492;2023-03-20T07:45:40;94.28;;;44.58;;
65469;SDS011;52067;50.710;14.492;2023-03-20T07:48:06;98.90;;;46.88;;
65469;SDS011;52067;50.710;14.492;2023-03-20T07:50:31;87.68;;;43.42;;
65469;SDS011;52067;50.710;14.492;2023-03-20T07:52:57;77.10;;;39.88;;
65469;SDS011;52067;50.710;14.492;2023-03-20T07:55:22;80.90;;;41.92;;
65469;SDS011;52067;50.710;14.492;2023-03-20T07:57:48;76.65;;;39.20;;
65469;SDS011;52067;50.710;14.492;2023-03-20T08:00:14;76.13;;;40.28;;
65469;SDS011;52067;50.710;14.492;2023-03-20T08:02:40;79.53;;;42.03;;
65469;SDS011;52067;50.710;14.492;2023-03-20T08:05:06;83.50;;;39.97;;
65469;SDS011;52067;50.710;14.492;2023-03-20T08:07:32;88.93;;;48.35;;
65469;SDS011;52067;50.710;14.492;2023-03-20T08:09:57;86.40;;;43.42;;
65469;SDS011;52067;50.710;14.492;2023-03-20T08:12:23;87.97;;;42.72;;
65469;SDS011;52067;50.710;14.492;2023-03-20T08:14:49;83.35;;;41.78;;
65469;SDS011;52067;50.710;14.492;2023-03-20T08:17:14;89.15;;;44.47;;
65469;SDS011;52067;50.710;14.492;2023-03-20T08:19:40;88.97;;;44.25;;
65469;SDS011;52067;50.710;14.492;2023-03-20T08:22:05;91.07;;;45.05;;
65469;SDS011;52067;50.710;14.492;2023-03-20T08:24:31;94.78;;;48.17;;
65469;SDS011;52067;50.710;14.492;2023-03-20T08:26:56;109.13;;;50.17;;
65469;SDS011;52067;50.710;14.492;2023-03-20T08:29:22;104.88;;;51.00;;
65469;SDS011;52067;50.710;14.492;2023-03-20T08:31:47;100.88;;;49.38;;
65469;SDS011;52067;50.710;14.492;2023-03-20T08:34:13;101.50;;;50.30;;
65469;SDS011;52067;50.710;14.492;2023-03-20T08:36:38;116.57;;;52.90;;
65469;SDS011;52067;50.710;14.492;2023-03-20T08:39:04;105.22;;;51.03;;
65469;SDS011;52067;50.710;14.492;2023-03-20T08:41:31;108.55;;;52.65;;
65469;SDS011;52067;50.710;14.492;2023-03-20T08:43:57;102.90;;;51.80;;
65469;SDS011;52067;50.710;14.492;2023-03-20T08:46:22;107.72;;;52.35;;
65469;SDS011;52067;50.710;14.492;2023-03-20T08:48:48;104.10;;;51.97;;
65469;SDS011;52067;50.710;14.492;2023-03-20T08:51:13;111.65;;;52.30;;
65469;SDS011;52067;50.710;14.492;2023-03-20T08:53:39;100.75;;;50.60;;
65469;SDS011;52067;50.710;14.492;2023-03-20T08:56:04;105.13;;;51.70;;
65469;SDS011;52067;50.710;14.492;2023-03-20T08:58:30;99.70;;;51.05;;
65469;SDS011;52067;50.710;14.492;2023-03-20T09:00:56;94.80;;;49.72;;
65469;SDS011;52067;50.710;14.492;2023-03-20T09:03:21;94.40;;;46.90;;
65469;SDS011;52067;50.710;14.492;2023-03-20T09:05:48;90.85;;;47.13;;
65469;SDS011;52067;50.710;14.492;2023-03-20T09:08:15;87.13;;;46.10;;
65469;SDS011;52067;50.710;14.492;2023-03-20T09:10:40;80.55;;;43.65;;
65469;SDS011;52067;50.710;14.492;2023-03-20T09:13:06;84.93;;;45.28;;
65469;SDS011;52067;50.710;14.492;2023-03-20T09:15:33;68.22;;;38.22;;
65469;SDS011;52067;50.710;14.492;2023-03-20T09:17:59;66.65;;;35.40;;
65469;SDS011;52067;50.710;14.492;2023-03-20T09:20:24;60.60;;;34.53;;
65469;SDS011;52067;50.710;14.492;2023-03-20T09:22:50;54.22;;;32.33;;
65469;SDS011;52067;50.710;14.492;2023-03-20T09:25:15;46.50;;;27.75;;
65469;SDS011;52067;50.710;14.492;2023-03-20T09:27:41;52.05;;;29.02;;
65469;SDS011;52067;50.710;14.492;2023-03-20T09:30:07;48.60;;;27.77;;
65469;SDS011;52067;50.710;14.492;2023-03-20T09:32:33;49.45;;;28.90;;
65469;SDS011;52067;50.710;14.492;2023-03-20T09:35:00;48.55;;;29.30;;
65469;SDS011;52067;50.710;14.492;2023-03-20T09:37:26;44.75;;;27.52;;
65469;SDS011;52067;50.710;14.492;2023-03-20T09:39:51;42.20;;;24.48;;
65469;SDS011;52067;50.710;14.492;2023-03-20T09:42:27;43.47;;;25.27;;
65469;SDS011;52067;50.710;14.492;2023-03-20T09:45:11;36.95;;;23.60;;
65469;SDS011;52067;50.710;14.492;2023-03-20T09:47:53;39.72;;;24.05;;
65469;SDS011;52067;50.710;14.492;2023-03-20T09:50:31;47.17;;;30.23;;
65469;SDS011;52067;50.710;14.492;2023-03-20T09:53:12;41.25;;;23.58;;
65469;SDS011;52067;50.710;14.492;2023-03-20T09:55:40;37.95;;;23.25;;
65469;SDS011;52067;50.710;14.492;2023-03-20T09:58:20;38.80;;;23.17;;
65469;SDS011;52067;50.710;14.492;2023-03-20T10:01:06;38.03;;;23.83;;
65469;SDS011;52067;50.710;14.492;2023-03-20T10:03:51;44.80;;;25.50;;
65469;SDS011;52067;50.710;14.492;2023-03-20T10:06:20;50.30;;;26.33;;
65469;SDS011;52067;50.710;14.492;2023-03-20T10:08:45;51.20;;;28.75;;
65469;SDS011;52067;50.710;14.492;2023-03-20T10:22:38;33.35;;;21.38;;
65469;SDS011;52067;50.710;14.492;2023-03-20T10:25:30;25.30;;;16.80;;
65469;SDS011;52067;50.710;14.492;2023-03-20T10:28:02;26.88;;;17.20;;
65469;SDS011;52067;50.710;14.492;2023-03-20T10:30:54;18.45;;;11.95;;
65469;SDS011;52067;50.710;14.492;2023-03-20T10:39:22;14.45;;;9.50;;
65469;SDS011;52067;50.710;14.492;2023-03-20T10:42:08;9.82;;;6.50;;
65469;SDS011;52067;50.710;14.492;2023-03-20T10:44:40;7.97;;;5.60;;
65469;SDS011;52067;50.710;14.492;2023-03-20T10:47:13;7.82;;;5.97;;
65469;SDS011;52067;50.710;14.492;2023-03-20T10:49:46;11.80;;;6.97;;
65469;SDS011;52067;50.710;14.492;2023-03-20T10:52:18;9.20;;;6.00;;
65469;SDS011;52067;50.710;14.492;2023-03-20T10:54:47;9.70;;;6.15;;
65469;SDS011;52067;50.710;14.492;2023-03-20T10:57:21;9.75;;;6.55;;
65469;SDS011;52067;50.710;14.492;2023-03-20T10:59:51;9.68;;;6.18;;
65469;SDS011;52067;50.710;14.492;2023-03-20T11:02:20;9.73;;;6.65;;
65469;SDS011;52067;50.710;14.492;2023-03-20T11:04:47;10.32;;;6.40;;
65469;SDS011;52067;50.710;14.492;2023-03-20T11:12:36;8.65;;;5.72;;
65469;SDS011;52067;50.710;14.492;2023-03-20T11:15:15;10.15;;;6.15;;
65469;SDS011;52067;50.710;14.492;2023-03-20T11:17:58;12.38;;;7.15;;
65469;SDS011;52067;50.710;14.492;2023-03-20T11:20:30;8.65;;;5.60;;
65469;SDS011;52067;50.710;14.492;2023-03-20T11:22:58;7.75;;;5.45;;
65469;SDS011;52067;50.710;14.492;2023-03-20T11:25:31;6.10;;;4.30;;
65469;SDS011;52067;50.710;14.492;2023-03-20T11:30:44;5.83;;;4.07;;
65469;SDS011;52067;50.710;14.492;2023-03-20T11:33:10;5.38;;;4.40;;
65469;SDS011;52067;50.710;14.492;2023-03-20T11:35:36;6.65;;;4.75;;
65469;SDS011;52067;50.710;14.492;2023-03-20T11:38:09;6.28;;;4.57;;
65469;SDS011;52067;50.710;14.492;2023-03-20T11:40:39;6.45;;;4.95;;
65469;SDS011;52067;50.710;14.492;2023-03-20T11:43:09;6.75;;;5.15;;
65469;SDS011;52067;50.710;14.492;2023-03-20T11:45:36;6.43;;;5.45;;
65469;SDS011;52067;50.710;14.492;2023-03-20T11:48:05;7.40;;;5.32;;
65469;SDS011;52067;50.710;14.492;2023-03-20T11:50:44;7.28;;;4.85;;
65469;SDS011;52067;50.710;14.492;2023-03-20T11:58:33;6.00;;;4.75;;
65469;SDS011;52067;50.710;14.492;2023-03-20T12:01:01;6.15;;;4.80;;
65469;SDS011;52067;50.710;14.492;2023-03-20T12:09:11;5.78;;;4.43;;
65469;SDS011;52067;50.710;14.492;2023-03-20T12:11:51;5.43;;;4.00;;
65469;SDS011;52067;50.710;14.492;2023-03-20T12:14:34;5.13;;;4.20;;
65469;SDS011;52067;50.710;14.492;2023-03-20T12:25:53;6.38;;;4.60;;
65469;SDS011;52067;50.710;14.492;2023-03-20T12:28:28;6.32;;;4.60;;
65469;SDS011;52067;50.710;14.492;2023-03-20T12:34:24;6.57;;;4.85;;
65469;SDS011;52067;50.710;14.492;2023-03-20T12:36:57;7.53;;;4.40;;
65469;SDS011;52067;50.710;14.492;2023-03-20T12:39:23;5.60;;;3.50;;
65469;SDS011;52067;50.710;14.492;2023-03-20T12:42:02;5.38;;;3.30;;
65469;SDS011;52067;50.710;14.492;2023-03-20T12:44:59;5.68;;;3.65;;
65469;SDS011;52067;50.710;14.492;2023-03-20T13:00:55;4.72;;;2.70;;
65469;SDS011;52067;50.710;14.492;2023-03-20T13:09:40;11.30;;;5.25;;
65469;SDS011;52067;50.710;14.492;2023-03-20T13:15:33;5.68;;;4.07;;
65469;SDS011;52067;50.710;14.492;2023-03-20T13:18:18;3.78;;;2.70;;
65469;SDS011;52067;50.710;14.492;2023-03-20T13:20:51;6.38;;;3.00;;
65469;SDS011;52067;50.710;14.492;2023-03-20T13:23:36;4.47;;;2.60;;
65469;SDS011;52067;50.710;14.492;2023-03-20T13:26:19;4.38;;;2.42;;
65469;SDS011;52067;50.710;14.492;2023-03-20T13:37:29;9.93;;;4.72;;
65469;SDS011;52067;50.710;14.492;2023-03-20T13:45:26;15.48;;;13.63;;
65469;SDS011;52067;50.710;14.492;2023-03-20T13:47:55;9.25;;;7.20;;
65469;SDS011;52067;50.710;14.492;2023-03-20T13:53:06;7.18;;;5.30;;
65469;SDS011;52067;50.710;14.492;2023-03-20T13:55:44;10.45;;;6.75;;
65469;SDS011;52067;50.710;14.492;2023-03-20T13:58:38;9.68;;;6.72;;
65469;SDS011;52067;50.710;14.492;2023-03-20T14:03:35;10.00;;;8.00;;
65469;SDS011;52067;50.710;14.492;2023-03-20T14:09:00;15.77;;;5.90;;
65469;SDS011;52067;50.710;14.492;2023-03-20T14:11:29;9.52;;;6.10;;
65469;SDS011;52067;50.710;14.492;2023-03-20T14:16:38;11.98;;;7.03;;
65469;SDS011;52067;50.710;14.492;2023-03-20T14:21:43;10.68;;;7.53;;
65469;SDS011;52067;50.710;14.492;2023-03-20T14:24:11;11.18;;;7.10;;
65469;SDS011;52067;50.710;14.492;2023-03-20T14:26:40;11.75;;;8.52;;
65469;SDS011;52067;50.710;14.492;2023-03-20T14:31:38;11.82;;;8.05;;
65469;SDS011;52067;50.710;14.492;2023-03-20T14:48:10;14.80;;;9.68;;
65469;SDS011;52067;50.710;14.492;2023-03-20T14:53:21;16.23;;;10.63;;
65469;SDS011;52067;50.710;14.492;2023-03-20T15:03:49;15.63;;;11.10;;
65469;SDS011;52067;50.710;14.492;2023-03-20T15:06:21;23.88;;;13.32;;
65469;SDS011;52067;50.710;14.492;2023-03-20T15:08:59;25.02;;;14.70;;
65469;SDS011;52067;50.710;14.492;2023-03-20T15:11:31;15.15;;;9.88;;
65469;SDS011;52067;50.710;14.492;2023-03-20T15:13:59;14.15;;;9.77;;
65469;SDS011;52067;50.710;14.492;2023-03-20T15:16:30;15.70;;;9.82;;
65469;SDS011;52067;50.710;14.492;2023-03-20T15:18:58;14.93;;;10.07;;
65469;SDS011;52067;50.710;14.492;2023-03-20T15:21:33;15.90;;;9.63;;
65469;SDS011;52067;50.710;14.492;2023-03-20T15:24:02;17.52;;;11.00;;
65469;SDS011;52067;50.710;14.492;2023-03-20T15:26:28;19.67;;;8.57;;
65469;SDS011;52067;50.710;14.492;2023-03-20T15:28:59;30.08;;;16.83;;
65469;SDS011;52067;50.710;14.492;2023-03-20T15:31:34;15.35;;;9.35;;
65469;SDS011;52067;50.710;14.492;2023-03-20T15:34:04;26.30;;;13.67;;
65469;SDS011;52067;50.710;14.492;2023-03-20T15:36:32;15.93;;;10.57;;
65469;SDS011;52067;50.710;14.492;2023-03-20T15:42:01;15.35;;;10.23;;
65469;SDS011;52067;50.710;14.492;2023-03-20T15:44:34;15.80;;;10.70;;
65469;SDS011;52067;50.710;14.492;2023-03-20T15:49:41;16.23;;;10.13;;
65469;SDS011;52067;50.710;14.492;2023-03-20T15:52:29;15.77;;;11.20;;
65469;SDS011;52067;50.710;14.492;2023-03-20T15:54:55;18.17;;;11.40;;
65469;SDS011;52067;50.710;14.492;2023-03-20T15:57:24;23.52;;;13.88;;
65469;SDS011;52067;50.710;14.492;2023-03-20T16:00:00;42.10;;;24.48;;
65469;SDS011;52067;50.710;14.492;2023-03-20T16:02:27;19.98;;;13.23;;
65469;SDS011;52067;50.710;14.492;2023-03-20T16:04:54;16.85;;;10.40;;
65469;SDS011;52067;50.710;14.492;2023-03-20T16:07:27;15.50;;;9.60;;
65469;SDS011;52067;50.710;14.492;2023-03-20T16:09:55;15.73;;;8.57;;
65469;SDS011;52067;50.710;14.492;2023-03-20T16:12:25;19.30;;;10.95;;
65469;SDS011;52067;50.710;14.492;2023-03-20T16:14:53;13.00;;;7.80;;
65469;SDS011;52067;50.710;14.492;2023-03-20T16:17:20;10.35;;;6.15;;
65469;SDS011;52067;50.710;14.492;2023-03-20T16:19:48;10.25;;;6.78;;
65469;SDS011;52067;50.710;14.492;2023-03-20T16:22:18;10.85;;;7.20;;
65469;SDS011;52067;50.710;14.492;2023-03-20T16:24:48;12.15;;;8.15;;
65469;SDS011;52067;50.710;14.492;2023-03-20T16:27:21;12.75;;;8.60;;
65469;SDS011;52067;50.710;14.492;2023-03-20T16:29:51;12.63;;;8.33;;
65469;SDS011;52067;50.710;14.492;2023-03-20T16:32:39;14.55;;;8.73;;
65469;SDS011;52067;50.710;14.492;2023-03-20T16:35:12;12.07;;;7.70;;
65469;SDS011;52067;50.710;14.492;2023-03-20T16:37:54;12.88;;;7.63;;
65469;SDS011;52067;50.710;14.492;2023-03-20T16:40:26;13.32;;;8.55;;
65469;SDS011;52067;50.710;14.492;2023-03-20T16:42:56;16.08;;;7.88;;
65469;SDS011;52067;50.710;14.492;2023-03-20T16:48:39;17.35;;;10.68;;
65469;SDS011;52067;50.710;14.492;2023-03-20T16:50:43;22.17;;;10.13;;
65469;SDS011;52067;50.710;14.492;2023-03-20T16:53:11;17.45;;;10.55;;
65469;SDS011;52067;50.710;14.492;2023-03-20T16:55:43;16.25;;;9.73;;
65469;SDS011;52067;50.710;14.492;2023-03-20T16:58:16;18.48;;;10.80;;
65469;SDS011;52067;50.710;14.492;2023-03-20T17:00:59;18.00;;;10.48;;
65469;SDS011;52067;50.710;14.492;2023-03-20T17:03:28;17.05;;;9.18;;
65469;SDS011;52067;50.710;14.492;2023-03-20T17:06:07;17.33;;;10.90;;
65469;SDS011;52067;50.710;14.492;2023-03-20T17:11:29;19.35;;;11.05;;
65469;SDS011;52067;50.710;14.492;2023-03-20T17:13:59;24.45;;;12.13;;
65469;SDS011;52067;50.710;14.492;2023-03-20T17:16:25;21.20;;;11.10;;
65469;SDS011;52067;50.710;14.492;2023-03-20T17:19:01;20.55;;;11.52;;
65469;SDS011;52067;50.710;14.492;2023-03-20T17:21:43;22.55;;;12.57;;